createdAt,value
2018-08-16T00:00:03.136Z,16.1
2018-08-16T00:15:02.446Z,16
2018-08-16T00:30:03.006Z,15.9
2018-08-16T00:45:02.326Z,15.9
2018-08-16T01:00:02.683Z,15.8
2018-08-16T01:15:02.999Z,15.6
2018-08-16T01:30:02.428Z,15.6
2018-08-16T01:45:02.737Z,15.4
2018-08-16T02:00:03.065Z,15.3
2018-08-16T02:15:02.401Z,15.2
2018-08-16T02:30:02.807Z,15.1
2018-08-16T02:45:03.211Z,14.9
2018-08-16T03:00:02.674Z,14.9
2018-08-16T03:15:03.047Z,14.8
2018-08-16T03:30:02.427Z,14.7
2018-08-16T03:45:02.723Z,14.6
2018-08-16T04:00:03.047Z,14.4
2018-08-16T04:15:02.382Z,14.4
2018-08-16T04:30:02.793Z,14.2
2018-08-16T04:45:03.120Z,14.4
2018-08-16T05:00:02.414Z,14.5
2018-08-16T05:15:02.728Z,14.7
2018-08-16T05:30:03.127Z,14.9
2018-08-16T05:45:02.392Z,15.2
2018-08-16T06:00:02.728Z,15.5
2018-08-16T06:15:03.031Z,15.9
2018-08-16T06:30:02.593Z,16.2
2018-08-16T06:45:02.904Z,16.6
2018-08-16T07:00:03.243Z,16.9
2018-08-16T07:15:02.556Z,17.4
2018-08-16T07:30:03.056Z,17.9
2018-08-16T07:45:02.508Z,18.6
2018-08-16T08:00:02.809Z,19.3
2018-08-16T08:15:03.116Z,20.8
2018-08-16T08:30:02.528Z,22.1
2018-08-16T08:45:02.822Z,23.1
2018-08-16T09:00:03.179Z,23.4
2018-08-16T09:15:02.476Z,24.4
2018-08-16T09:30:02.912Z,25.4
2018-08-16T09:45:03.248Z,25.6
2018-08-16T10:00:02.570Z,25.5
2018-08-16T10:15:02.910Z,27.1
2018-08-16T10:30:02.295Z,27.2
2018-08-16T10:45:02.624Z,27.4
2018-08-16T11:00:02.913Z,26.4
2018-08-16T11:15:02.315Z,27.9
2018-08-16T11:30:02.715Z,28.1
2018-08-16T11:45:03.021Z,26.8
2018-08-16T12:00:02.331Z,28.9
2018-08-16T12:15:02.619Z,28.7
2018-08-16T12:30:03.109Z,29
2018-08-16T12:45:02.409Z,28.5
2018-08-16T13:00:05.967Z,28.9
2018-08-16T13:15:02.348Z,29.1
2018-08-16T13:30:02.881Z,28.5
2018-08-16T13:45:03.222Z,29.5
2018-08-16T14:00:02.571Z,29.4
2018-08-16T14:15:02.905Z,29
2018-08-16T14:30:02.293Z,29.5
2018-08-16T14:45:02.629Z,28.5
2018-08-16T15:00:02.922Z,29
2018-08-16T15:15:03.228Z,28.9
2018-08-16T15:30:02.603Z,28.1
2018-08-16T15:45:02.985Z,27.4
2018-08-16T16:00:02.314Z,26.9
2018-08-16T16:15:02.639Z,26.6
2018-08-16T16:30:03.044Z,26.4
2018-08-16T16:45:02.457Z,25.9
2018-08-16T17:00:02.818Z,25.6
2018-08-16T17:15:03.116Z,25
2018-08-16T17:30:02.502Z,24.8
2018-08-16T17:45:02.818Z,24.2
2018-08-16T18:00:03.108Z,23.5
2018-08-16T18:15:02.486Z,22.7
2018-08-16T18:30:02.897Z,21.9
2018-08-16T18:45:03.231Z,21.5
2018-08-16T19:00:02.567Z,20.9
2018-08-16T19:15:02.889Z,20.6
2018-08-16T19:30:02.482Z,20.1
2018-08-16T19:45:02.849Z,19.7
2018-08-16T20:00:03.180Z,19.4
2018-08-16T20:15:02.526Z,19.1
2018-08-16T20:30:02.916Z,18.8
2018-08-16T20:45:03.209Z,18.5
2018-08-16T21:00:02.590Z,18.2
2018-08-16T21:15:02.960Z,18.1
2018-08-16T21:30:02.496Z,17.9
2018-08-16T21:45:02.809Z,17.7
2018-08-16T22:00:03.119Z,17.6
2018-08-16T22:15:02.434Z,17.3
2018-08-16T22:30:02.824Z,17.2
2018-08-16T22:45:03.125Z,17.1
2018-08-16T23:00:02.478Z,16.8
2018-08-16T23:15:02.785Z,16.6
2018-08-16T23:30:03.190Z,16.4
2018-08-16T23:45:02.566Z,16.2
